createdAt,value
2023-03-01T00:01:02.990Z,22.63
2023-03-01T00:03:30.551Z,22.55
2023-03-01T00:05:58.077Z,18.45
2023-03-01T00:08:27.025Z,17.02
2023-03-01T00:11:02.008Z,18.70
2023-03-01T00:13:29.676Z,17.92
2023-03-01T00:15:57.181Z,17.13
2023-03-01T00:18:24.690Z,16.65
2023-03-01T00:20:52.963Z,16.35
2023-03-01T00:23:20.508Z,18.83
2023-03-01T00:25:49.372Z,13.73
2023-03-01T00:28:17.168Z,16.60
2023-03-01T00:30:44.814Z,16.15
2023-03-01T00:33:12.353Z,15.73
2023-03-01T00:35:39.985Z,15.20
2023-03-01T00:38:07.579Z,14.38
2023-03-01T00:40:35.901Z,15.18
2023-03-01T00:43:05.427Z,14.30
2023-03-01T00:45:32.989Z,13.77
2023-03-01T00:48:00.447Z,13.70
2023-03-01T00:50:28.091Z,16.00
2023-03-01T00:52:56.111Z,13.98
2023-03-01T00:55:23.766Z,14.25
2023-03-01T00:57:51.261Z,15.25
2023-03-01T01:00:20.579Z,14.60
2023-03-01T01:02:48.158Z,14.30
2023-03-01T01:05:15.676Z,13.52
2023-03-01T01:07:43.157Z,14.23
2023-03-01T01:10:13.832Z,14.32
2023-03-01T01:12:41.377Z,11.85
2023-03-01T01:15:09.407Z,13.13
2023-03-01T01:17:38.198Z,12.63
2023-03-01T01:20:06.155Z,14.02
2023-03-01T01:22:33.662Z,13.80
2023-03-01T01:25:01.135Z,12.88
2023-03-01T01:27:28.686Z,14.63
2023-03-01T01:29:56.197Z,14.05
2023-03-01T01:32:26.003Z,14.02
2023-03-01T01:34:55.581Z,15.18
2023-03-01T01:37:23.358Z,14.73
2023-03-01T01:39:50.863Z,13.93
2023-03-01T01:42:19.234Z,17.10
2023-03-01T01:44:47.792Z,15.10
2023-03-01T01:47:16.849Z,14.93
2023-03-01T01:49:45.217Z,14.90
2023-03-01T01:52:16.061Z,15.82
2023-03-01T01:54:46.133Z,15.07
2023-03-01T01:57:16.437Z,16.38
2023-03-01T01:59:45.618Z,16.35
2023-03-01T02:02:13.845Z,15.65
2023-03-01T02:04:41.618Z,15.65
2023-03-01T02:07:11.199Z,12.68
2023-03-01T02:09:40.256Z,13.73
2023-03-01T02:12:08.019Z,12.88
2023-03-01T02:14:35.509Z,11.88
2023-03-01T02:17:03.547Z,13.52
2023-03-01T02:19:35.084Z,13.23
2023-03-01T02:22:08.263Z,11.50
2023-03-01T02:24:40.180Z,12.13
2023-03-01T02:29:36.696Z,10.30
2023-03-01T02:32:03.742Z,10.48
2023-03-01T02:34:32.525Z,11.05
2023-03-01T02:37:03.880Z,10.90
2023-03-01T02:39:34.610Z,10.48
2023-03-01T02:42:03.419Z,10.38
2023-03-01T02:44:30.938Z,9.70
2023-03-01T02:47:02.936Z,11.07
2023-03-01T02:49:32.681Z,11.88
2023-03-01T02:52:07.603Z,11.13
2023-03-01T02:54:38.843Z,11.10
2023-03-01T02:57:06.517Z,11.93
2023-03-01T02:59:40.122Z,11.32
2023-03-01T03:02:09.259Z,11.45
2023-03-01T03:04:36.796Z,11.70
2023-03-01T03:07:04.316Z,11.20
2023-03-01T03:09:31.880Z,10.85
2023-03-01T03:11:59.390Z,10.93
2023-03-01T03:14:26.963Z,10.27
2023-03-01T03:16:54.428Z,10.93
2023-03-01T03:19:23.281Z,10.32
2023-03-01T03:21:50.742Z,11.57
2023-03-01T03:24:19.231Z,10.25
2023-03-01T03:26:46.832Z,11.93
2023-03-01T03:29:14.312Z,10.77
2023-03-01T03:31:41.840Z,10.40
2023-03-01T03:34:09.367Z,11.15
2023-03-01T03:36:38.230Z,11.40
2023-03-01T03:39:06.614Z,10.63
2023-03-01T03:41:36.415Z,10.43
2023-03-01T03:44:03.888Z,9.88
2023-03-01T03:46:31.583Z,10.02
2023-03-01T03:48:59.803Z,10.75
2023-03-01T03:51:27.324Z,10.50
2023-03-01T03:53:56.217Z,11.18
2023-03-01T03:56:28.642Z,11.63
2023-03-01T03:58:56.386Z,11.38
2023-03-01T04:01:23.938Z,11.18
2023-03-01T04:03:55.266Z,10.55
2023-03-01T04:06:22.799Z,11.13
2023-03-01T04:09:00.898Z,11.63
2023-03-01T04:11:29.806Z,11.88
2023-03-01T04:13:58.682Z,11.75
2023-03-01T04:16:26.515Z,10.90
2023-03-01T04:18:55.377Z,10.50
2023-03-01T04:21:23.376Z,10.48
2023-03-01T04:23:53.401Z,10.68
2023-03-01T04:26:21.685Z,11.90
2023-03-01T04:28:51.406Z,12.05
2023-03-01T04:31:22.166Z,10.48
2023-03-01T04:33:52.234Z,10.95
2023-03-01T04:36:20.133Z,11.00
2023-03-01T04:38:49.148Z,10.70
2023-03-01T04:41:17.398Z,10.95
2023-03-01T04:43:44.932Z,10.88
2023-03-01T04:46:15.636Z,10.27
2023-03-01T04:48:44.189Z,9.52
2023-03-01T04:51:14.251Z,11.07
2023-03-01T04:53:42.188Z,10.60
2023-03-01T04:56:09.925Z,10.77
2023-03-01T04:58:37.695Z,10.48
2023-03-01T05:01:15.941Z,11.25
2023-03-01T05:03:45.913Z,11.18
2023-03-01T05:06:13.904Z,10.65
2023-03-01T05:08:41.883Z,11.02
2023-03-01T05:11:10.108Z,10.68
2023-03-01T05:13:38.099Z,10.45
2023-03-01T05:16:06.980Z,11.82
2023-03-01T05:18:35.822Z,11.10
2023-03-01T05:21:06.506Z,10.02
2023-03-01T05:23:34.356Z,10.50
2023-03-01T05:26:02.273Z,11.27
2023-03-01T05:28:30.532Z,10.73
2023-03-01T05:30:58.428Z,11.15
2023-03-01T05:33:26.198Z,11.07
2023-03-01T05:35:54.417Z,11.57
2023-03-01T05:38:23.478Z,10.90
2023-03-01T05:40:51.083Z,11.35
2023-03-01T05:43:18.983Z,11.10
2023-03-01T05:45:46.826Z,11.63
2023-03-01T05:48:14.608Z,12.50
2023-03-01T05:50:42.525Z,11.73
2023-03-01T05:53:11.921Z,11.23
2023-03-01T05:55:41.258Z,12.07
2023-03-01T05:58:09.709Z,12.02
2023-03-01T06:00:37.294Z,13.00
2023-03-01T06:03:04.915Z,12.02
2023-03-01T06:05:32.465Z,11.50
2023-03-01T06:08:00.705Z,11.55
2023-03-01T06:10:28.329Z,11.13
2023-03-01T06:12:57.392Z,12.75
2023-03-01T06:15:24.991Z,11.65
2023-03-01T06:17:52.568Z,11.55
2023-03-01T06:20:20.984Z,12.88
2023-03-01T06:22:48.936Z,12.38
2023-03-01T06:25:18.221Z,11.80
2023-03-01T06:27:46.372Z,12.48
2023-03-01T06:30:17.233Z,11.93
2023-03-01T06:32:44.699Z,12.77
2023-03-01T06:35:12.906Z,13.10
2023-03-01T06:37:40.487Z,15.75
2023-03-01T06:40:09.434Z,13.73
2023-03-01T06:42:37.013Z,13.85
2023-03-01T06:45:04.959Z,15.40
2023-03-01T06:47:34.061Z,14.07
2023-03-01T06:50:01.627Z,13.27
2023-03-01T06:52:29.424Z,14.68
2023-03-01T06:54:56.947Z,15.75
2023-03-01T06:57:24.497Z,13.15
2023-03-01T06:59:52.074Z,12.45
2023-03-01T07:02:19.591Z,12.60
2023-03-01T07:04:48.491Z,11.90
2023-03-01T07:07:16.073Z,13.18
2023-03-01T07:09:43.540Z,13.48
2023-03-01T07:12:11.076Z,13.05
2023-03-01T07:14:38.582Z,13.13
2023-03-01T07:17:06.160Z,13.40
2023-03-01T07:19:33.684Z,13.57
2023-03-01T07:22:02.579Z,13.65
2023-03-01T07:24:30.279Z,14.45
2023-03-01T07:26:57.754Z,13.65
2023-03-01T07:29:25.209Z,14.32
2023-03-01T07:31:52.648Z,13.40
2023-03-01T07:34:20.141Z,13.25
2023-03-01T07:36:48.433Z,14.13
2023-03-01T07:39:18.731Z,13.38
2023-03-01T07:41:47.376Z,12.65
2023-03-01T07:44:14.853Z,12.57
2023-03-01T07:46:42.340Z,13.38
2023-03-01T07:49:09.852Z,13.38
2023-03-01T07:51:37.337Z,12.45
2023-03-01T07:54:04.919Z,12.48
2023-03-01T07:56:34.133Z,12.63
2023-03-01T07:59:01.865Z,11.43
2023-03-01T08:01:29.360Z,11.82
2023-03-01T08:03:56.946Z,12.07
2023-03-01T08:06:24.424Z,11.32
2023-03-01T08:08:51.925Z,11.68
2023-03-01T08:11:19.438Z,12.38
2023-03-01T08:13:51.392Z,11.63
2023-03-01T08:16:20.538Z,10.98
2023-03-01T08:18:48.019Z,12.63
2023-03-01T08:21:17.467Z,11.38
2023-03-01T08:23:45.085Z,11.80
2023-03-01T08:26:13.917Z,12.13
2023-03-01T08:28:41.718Z,11.27
2023-03-01T08:31:17.373Z,11.25
2023-03-01T08:33:44.894Z,10.73
2023-03-01T08:36:12.388Z,11.10
2023-03-01T08:38:39.985Z,10.48
2023-03-01T08:41:07.721Z,10.38
2023-03-01T08:43:35.258Z,9.93
2023-03-01T08:46:02.834Z,10.60
2023-03-01T08:48:31.799Z,10.73
2023-03-01T08:50:59.302Z,9.85
2023-03-01T08:53:26.854Z,9.77
2023-03-01T08:55:54.385Z,10.85
2023-03-01T08:58:21.875Z,9.55
2023-03-01T09:00:49.441Z,10.23
2023-03-01T09:03:16.996Z,9.20
2023-03-01T09:05:46.878Z,9.20
2023-03-01T09:08:14.555Z,8.60
2023-03-01T09:10:42.107Z,7.25
2023-03-01T09:13:09.983Z,7.97
2023-03-01T09:15:38.636Z,5.68
2023-03-01T09:18:06.816Z,5.18
2023-03-01T09:20:34.527Z,6.30
2023-03-01T09:23:03.431Z,5.43
2023-03-01T09:25:30.963Z,6.03
2023-03-01T09:27:58.470Z,5.78
2023-03-01T09:30:26.257Z,5.43
2023-03-01T09:32:53.964Z,5.70
2023-03-01T09:35:23.556Z,4.80
2023-03-01T09:37:51.068Z,5.30
2023-03-01T09:40:21.248Z,5.32
2023-03-01T09:42:52.085Z,5.95
2023-03-01T09:45:24.729Z,5.15
2023-03-01T09:47:52.300Z,5.03
2023-03-01T09:50:20.968Z,5.45
2023-03-01T09:52:50.569Z,4.85
2023-03-01T09:55:19.637Z,5.32
2023-03-01T09:57:51.517Z,4.47
2023-03-01T10:00:24.488Z,4.75
2023-03-01T10:02:54.804Z,3.90
2023-03-01T10:05:29.562Z,3.80
2023-03-01T10:08:03.613Z,2.28
2023-03-01T10:10:34.155Z,2.40
2023-03-01T10:13:05.270Z,2.83
2023-03-01T10:15:37.036Z,2.97
2023-03-01T10:18:08.588Z,4.05
2023-03-01T10:20:44.429Z,8.23
2023-03-01T10:23:12.238Z,3.00
2023-03-01T10:25:46.588Z,2.88
2023-03-01T10:28:19.203Z,3.40
2023-03-01T10:30:47.435Z,2.80
2023-03-01T10:33:17.799Z,2.95
2023-03-01T10:35:45.352Z,3.50
2023-03-01T10:38:14.360Z,3.60
2023-03-01T10:40:52.689Z,3.40
2023-03-01T10:43:21.897Z,3.90
2023-03-01T10:45:50.574Z,4.07
2023-03-01T10:48:20.317Z,3.60
2023-03-01T10:50:48.794Z,3.67
2023-03-01T10:53:24.705Z,3.92
2023-03-01T10:55:59.442Z,3.80
2023-03-01T10:58:28.995Z,4.03
2023-03-01T11:00:57.731Z,3.60
2023-03-01T11:03:26.175Z,3.88
2023-03-01T11:06:00.961Z,4.43
2023-03-01T11:08:34.870Z,3.60
2023-03-01T11:11:07.036Z,4.40
2023-03-01T11:13:38.307Z,3.30
2023-03-01T11:16:08.944Z,3.33
2023-03-01T11:18:46.893Z,3.97
2023-03-01T11:21:17.392Z,3.97
2023-03-01T11:23:47.543Z,3.50
2023-03-01T11:26:17.040Z,3.33
2023-03-01T11:28:46.725Z,3.35
2023-03-01T11:31:16.048Z,3.30
2023-03-01T11:33:46.833Z,3.17
2023-03-01T11:36:18.521Z,3.15
2023-03-01T11:38:46.077Z,3.35
2023-03-01T11:41:17.048Z,2.88
2023-03-01T11:43:49.597Z,2.40
2023-03-01T11:46:35.007Z,2.53
2023-03-01T11:49:09.775Z,3.10
2023-03-01T11:51:43.138Z,2.47
2023-03-01T11:54:24.133Z,2.70
2023-03-01T11:56:54.466Z,2.40
2023-03-01T11:59:42.694Z,2.40
2023-03-01T12:02:21.776Z,2.38
2023-03-01T12:05:17.216Z,2.33
2023-03-01T12:07:48.624Z,1.95
2023-03-01T12:10:22.580Z,1.95
2023-03-01T12:12:59.467Z,2.15
2023-03-01T12:15:35.172Z,2.70
2023-03-01T12:18:16.442Z,2.42
2023-03-01T12:20:49.618Z,2.22
2023-03-01T12:23:26.485Z,1.90
2023-03-01T12:25:57.356Z,2.00
2023-03-01T12:28:41.569Z,1.92
2023-03-01T12:31:18.937Z,1.90
2023-03-01T12:36:33.826Z,1.98
2023-03-01T12:39:04.869Z,1.95
2023-03-01T12:44:03.716Z,1.90
2023-03-01T12:46:39.169Z,1.52
2023-03-01T12:49:10.228Z,1.70
2023-03-01T12:51:40.180Z,1.70
2023-03-01T12:54:12.035Z,2.20
2023-03-01T12:56:39.937Z,1.50
2023-03-01T12:59:11.088Z,1.40
2023-03-01T13:01:43.473Z,1.40
2023-03-01T13:04:17.890Z,1.60
2023-03-01T13:06:52.011Z,1.67
2023-03-01T13:09:26.948Z,1.52
2023-03-01T13:11:54.447Z,1.65
2023-03-01T13:14:46.843Z,1.33
2023-03-01T13:17:31.823Z,1.45
2023-03-01T13:19:59.699Z,1.42
2023-03-01T13:22:30.063Z,1.58
2023-03-01T13:25:03.302Z,1.55
2023-03-01T13:27:31.421Z,1.77
2023-03-01T13:30:00.745Z,1.70
2023-03-01T13:32:42.962Z,1.80
2023-03-01T13:35:26.265Z,1.67
2023-03-01T13:38:15.095Z,1.70
2023-03-01T13:41:02.448Z,2.03
2023-03-01T13:43:31.930Z,1.77
2023-03-01T13:45:59.912Z,1.58
2023-03-01T13:48:28.341Z,1.60
2023-03-01T13:50:58.192Z,1.83
2023-03-01T13:53:27.388Z,1.70
2023-03-01T13:55:58.713Z,1.70
2023-03-01T13:58:29.721Z,1.40
2023-03-01T14:00:58.419Z,1.70
2023-03-01T14:03:25.997Z,1.40
2023-03-01T14:06:12.562Z,1.65
2023-03-01T14:08:42.413Z,2.00
2023-03-01T14:11:25.898Z,1.55
2023-03-01T14:14:02.529Z,1.77
2023-03-01T14:16:34.489Z,1.60
2023-03-01T14:19:08.007Z,1.90
2023-03-01T14:21:36.280Z,1.50
2023-03-01T14:24:03.837Z,1.98
2023-03-01T14:26:32.198Z,1.60
2023-03-01T14:29:01.141Z,1.75
2023-03-01T14:31:47.040Z,1.52
2023-03-01T14:34:21.311Z,1.90
2023-03-01T14:36:48.853Z,2.03
2023-03-01T14:39:19.897Z,1.58
2023-03-01T14:41:47.616Z,1.55
2023-03-01T14:44:18.557Z,1.50
2023-03-01T14:46:46.556Z,1.40
2023-03-01T14:49:16.224Z,1.30
2023-03-01T14:51:44.786Z,1.50
2023-03-01T14:54:22.010Z,1.90
2023-03-01T14:56:49.477Z,1.60
2023-03-01T14:59:20.269Z,1.70
2023-03-01T15:01:47.983Z,1.63
2023-03-01T15:04:15.921Z,1.45
2023-03-01T15:06:43.768Z,1.70
2023-03-01T15:09:15.990Z,1.70
2023-03-01T15:11:44.638Z,1.98
2023-03-01T15:14:30.084Z,1.60
2023-03-01T15:16:57.939Z,1.58
2023-03-01T15:19:28.346Z,1.80
2023-03-01T15:21:55.876Z,1.90
2023-03-01T15:24:25.710Z,1.70
2023-03-01T15:26:56.236Z,1.67
2023-03-01T15:29:27.862Z,1.65
2023-03-01T15:31:57.627Z,1.60
2023-03-01T15:34:26.659Z,1.50
2023-03-01T15:36:54.807Z,1.50
2023-03-01T15:39:32.638Z,1.73
2023-03-01T15:42:00.118Z,1.75
2023-03-01T15:44:34.962Z,1.50
2023-03-01T15:47:25.109Z,1.55
2023-03-01T15:49:55.659Z,1.58
2023-03-01T15:52:29.761Z,1.48
2023-03-01T15:54:58.243Z,1.60
2023-03-01T15:57:25.740Z,1.80
2023-03-01T15:59:53.313Z,1.50
2023-03-01T16:02:22.887Z,1.45
2023-03-01T16:04:50.578Z,1.50
2023-03-01T16:07:18.146Z,1.30
2023-03-01T16:09:45.918Z,1.40
2023-03-01T16:12:15.895Z,1.38
2023-03-01T16:14:43.511Z,1.60
2023-03-01T16:17:11.100Z,1.17
2023-03-01T16:19:40.555Z,1.40
2023-03-01T16:22:08.012Z,1.75
2023-03-01T16:24:36.884Z,1.77
2023-03-01T16:27:04.648Z,1.67
2023-03-01T16:29:32.240Z,1.77
2023-03-01T16:32:02.413Z,1.67
2023-03-01T16:34:30.398Z,2.10
2023-03-01T16:36:59.284Z,2.00
2023-03-01T16:39:26.806Z,2.33
2023-03-01T16:41:54.336Z,1.90
2023-03-01T16:44:21.885Z,2.05
2023-03-01T16:46:49.404Z,1.40
2023-03-01T16:49:16.927Z,2.17
2023-03-01T16:51:45.154Z,1.90
2023-03-01T16:54:14.078Z,2.00
2023-03-01T16:56:41.569Z,1.80
2023-03-01T16:59:09.180Z,2.00
2023-03-01T17:01:40.382Z,1.80
2023-03-01T17:04:08.272Z,3.40
2023-03-01T17:06:35.736Z,2.25
2023-03-01T17:09:03.239Z,2.03
2023-03-01T17:11:32.503Z,1.77
2023-03-01T17:14:00.183Z,1.92
2023-03-01T17:16:28.144Z,1.90
2023-03-01T17:18:55.725Z,1.88
2023-03-01T17:21:23.266Z,1.70
2023-03-01T17:23:52.109Z,1.90
2023-03-01T17:26:19.677Z,1.70
2023-03-01T17:28:51.742Z,2.13
2023-03-01T17:31:19.831Z,2.55
2023-03-01T17:33:47.459Z,2.53
2023-03-01T17:36:14.983Z,2.38
2023-03-01T17:38:42.506Z,2.00
2023-03-01T17:41:12.072Z,2.03
2023-03-01T17:43:39.782Z,2.08
2023-03-01T17:46:08.971Z,2.50
2023-03-01T17:48:36.503Z,3.13
2023-03-01T17:51:07.036Z,2.92
2023-03-01T17:53:34.587Z,2.42
2023-03-01T17:56:02.668Z,3.30
2023-03-01T17:58:30.522Z,3.63
2023-03-01T18:00:58.144Z,4.72
2023-03-01T18:03:26.997Z,3.58
2023-03-01T18:05:54.492Z,3.85
2023-03-01T18:08:21.944Z,3.15
2023-03-01T18:10:49.431Z,4.22
2023-03-01T18:13:16.952Z,3.75
2023-03-01T18:15:44.488Z,3.70
2023-03-01T18:18:13.109Z,3.67
2023-03-01T18:20:42.038Z,3.70
2023-03-01T18:23:09.521Z,4.10
2023-03-01T18:25:40.056Z,4.40
2023-03-01T18:28:07.551Z,4.95
2023-03-01T18:30:35.156Z,4.28
2023-03-01T18:33:02.652Z,3.47
2023-03-01T18:35:31.548Z,3.88
2023-03-01T18:38:00.482Z,3.55
2023-03-01T18:40:29.719Z,3.80
2023-03-01T18:42:57.215Z,3.38
2023-03-01T18:45:24.734Z,3.78
2023-03-01T18:47:52.255Z,3.35
2023-03-01T18:50:19.923Z,3.78
2023-03-01T18:52:47.440Z,3.95
2023-03-01T18:55:16.351Z,4.38
2023-03-01T18:57:43.934Z,5.50
2023-03-01T19:00:12.200Z,5.28
2023-03-01T19:02:39.808Z,6.43
2023-03-01T19:05:07.951Z,5.88
2023-03-01T19:07:35.376Z,4.50
2023-03-01T19:10:02.906Z,4.88
2023-03-01T19:12:33.829Z,5.13
2023-03-01T19:15:02.008Z,5.18
2023-03-01T19:17:31.305Z,5.35
2023-03-01T19:19:58.868Z,4.65
2023-03-01T19:22:27.585Z,5.15
2023-03-01T19:24:55.088Z,4.90
2023-03-01T19:27:22.563Z,4.13
2023-03-01T19:29:51.482Z,4.57
2023-03-01T19:32:19.004Z,4.85
2023-03-01T19:34:46.718Z,5.00
2023-03-01T19:37:14.324Z,5.70
2023-03-01T19:39:43.225Z,5.43
2023-03-01T19:42:11.012Z,6.18
2023-03-01T19:44:39.566Z,5.00
2023-03-01T19:47:08.543Z,5.97
2023-03-01T19:49:37.667Z,4.88
2023-03-01T19:52:05.249Z,5.65
2023-03-01T19:54:32.819Z,5.75
2023-03-01T19:57:00.463Z,5.70
2023-03-01T19:59:28.353Z,5.07
2023-03-01T20:01:56.009Z,5.30
2023-03-01T20:04:24.973Z,4.97
2023-03-01T20:06:52.572Z,5.53
2023-03-01T20:09:22.270Z,5.05
2023-03-01T20:11:50.325Z,5.50
2023-03-01T20:14:17.882Z,6.85
2023-03-01T20:16:45.394Z,10.45
2023-03-01T20:19:12.946Z,11.15
2023-03-01T20:21:41.782Z,11.50
2023-03-01T20:24:09.557Z,12.93
2023-03-01T20:26:37.350Z,14.13
2023-03-01T20:29:04.793Z,14.93
2023-03-01T20:31:32.309Z,11.85
2023-03-01T20:34:00.415Z,12.45
2023-03-01T20:36:28.811Z,13.05
2023-03-01T20:38:57.730Z,12.30
2023-03-01T20:41:26.367Z,9.75
2023-03-01T20:43:56.812Z,8.25
2023-03-01T20:46:26.385Z,9.13
2023-03-01T20:48:54.192Z,8.60
2023-03-01T20:51:21.676Z,8.48
2023-03-01T20:53:49.300Z,8.60
2023-03-01T20:56:18.956Z,8.70
2023-03-01T20:58:46.721Z,8.98
2023-03-01T21:01:16.692Z,9.02
2023-03-01T21:03:44.739Z,9.68
2023-03-01T21:06:12.313Z,8.73
2023-03-01T21:08:39.827Z,7.75
2023-03-01T21:11:07.564Z,8.32
2023-03-01T21:13:36.750Z,8.88
2023-03-01T21:16:05.293Z,9.00
2023-03-01T21:18:33.260Z,9.23
2023-03-01T21:21:01.007Z,8.52
2023-03-01T21:23:29.731Z,8.60
2023-03-01T21:26:01.135Z,8.60
2023-03-01T21:28:32.289Z,8.27
2023-03-01T21:31:05.553Z,7.57
2023-03-01T21:33:33.150Z,8.05
2023-03-01T21:36:01.522Z,7.70
2023-03-01T21:38:30.636Z,7.78
2023-03-01T21:40:58.116Z,7.55
2023-03-01T21:43:25.697Z,7.90
2023-03-01T21:45:53.278Z,8.10
2023-03-01T21:48:22.152Z,7.80
2023-03-01T21:50:55.229Z,8.55
2023-03-01T21:53:22.667Z,8.15
2023-03-01T21:55:51.627Z,7.93
2023-03-01T21:58:19.366Z,6.93
2023-03-01T22:00:47.068Z,7.63
2023-03-01T22:03:15.047Z,8.07
2023-03-01T22:05:43.903Z,7.63
2023-03-01T22:08:11.383Z,7.43
2023-03-01T22:10:43.582Z,7.70
2023-03-01T22:13:11.244Z,7.72
2023-03-01T22:15:40.609Z,8.00
2023-03-01T22:18:08.181Z,7.75
2023-03-01T22:20:35.640Z,7.50
2023-03-01T22:23:04.524Z,8.38
2023-03-01T22:25:32.006Z,7.53
2023-03-01T22:27:59.489Z,7.00
2023-03-01T22:30:27.108Z,8.10
2023-03-01T22:32:54.701Z,8.27
2023-03-01T22:35:22.299Z,8.02
2023-03-01T22:37:49.852Z,10.35
2023-03-01T22:40:18.730Z,10.15
2023-03-01T22:42:46.304Z,9.32
2023-03-01T22:45:13.856Z,9.82
2023-03-01T22:47:41.386Z,9.35
2023-03-01T22:50:09.469Z,9.85
2023-03-01T22:52:39.672Z,8.27
2023-03-01T22:55:07.665Z,8.32
2023-03-01T22:57:36.512Z,9.15
2023-03-01T23:00:05.231Z,9.20
2023-03-01T23:02:34.829Z,9.68
2023-03-01T23:05:02.481Z,9.23
2023-03-01T23:07:29.974Z,9.75
2023-03-01T23:10:02.367Z,9.25
2023-03-01T23:12:29.934Z,10.13
2023-03-01T23:14:59.012Z,9.90
2023-03-01T23:17:26.484Z,9.18
2023-03-01T23:19:53.997Z,9.32
2023-03-01T23:22:21.784Z,9.35
2023-03-01T23:24:49.229Z,8.93
2023-03-01T23:27:17.411Z,8.98
2023-03-01T23:29:45.081Z,10.10
2023-03-01T23:32:14.735Z,8.95
2023-03-01T23:34:43.712Z,8.82
2023-03-01T23:37:11.581Z,9.93
2023-03-01T23:39:40.393Z,9.43
2023-03-01T23:42:08.300Z,10.30
2023-03-01T23:44:35.769Z,9.20
2023-03-01T23:47:03.408Z,10.05
2023-03-01T23:49:32.220Z,9.52
2023-03-01T23:52:01.363Z,9.55
2023-03-01T23:54:28.900Z,9.23
2023-03-01T23:56:56.398Z,8.18
2023-03-01T23:59:24.749Z,9.07
